Time;durP1;ratioP1;P1;durP2;ratioP2;P2;SDS_P1;SDS_P2;PMS_P1;PMS_P2;Temp;Humidity;BMP_temperature;BMP_pressure;BME280_temperature;BME280_humidity;BME280_pressure;Samples;Min_cycle;Max_cycle;Signal;HPM_P1;HPM_P2
2022/10/18 00:00:32;;;;;;;;;;;12.50;99.90;;;;;;5047592;28;19971;-92
2022/10/18 00:02:58;;;;;;;;;;;12.40;99.90;;;;;;5063389;28;19924;-90
2022/10/18 00:05:24;;;;;;;;;;;12.50;99.90;;;;;;5062361;28;19987;-91
2022/10/18 00:07:49;;;;;;;;;;;12.40;99.90;;;;;;5078103;28;19927;-90
2022/10/18 00:10:15;;;;;;;;;;;12.40;99.90;;;;;;5109549;28;19925;-90
2022/10/18 00:12:40;;;;;;;;;;;12.40;99.90;;;;;;5065396;28;19932;-91
2022/10/18 00:15:06;;;;;;;;;;;12.40;99.90;;;;;;5063532;28;19958;-90
2022/10/18 00:17:36;;;;;;;;;;;12.40;99.90;;;;;;5081319;28;19924;-91
2022/10/18 00:20:02;;;;;;;;;;;12.40;99.90;;;;;;5083078;28;20013;-90
2022/10/18 00:22:28;;;;;;;;;;;12.30;99.90;;;;;;5061283;28;19935;-91
2022/10/18 00:24:53;;;;;;;;;;;12.30;99.90;;;;;;5079983;28;19924;-91
2022/10/18 00:27:19;;;;;;;;;;;12.30;99.90;;;;;;5045289;28;19928;-91
2022/10/18 00:29:44;;;;;;;;;;;12.20;99.90;;;;;;5049213;28;20018;-92
2022/10/18 00:32:11;;;;;;;;;;;12.20;99.90;;;;;;5097942;28;19924;-91
2022/10/18 00:34:37;;;;;;;;;;;12.20;99.90;;;;;;5065405;28;19924;-92
2022/10/18 00:37:02;;;;;;;;;;;12.20;99.90;;;;;;5065407;28;19939;-92
2022/10/18 00:39:28;;;;;;;;;;;12.20;99.90;;;;;;5045191;28;19924;-91
2022/10/18 00:41:54;;;;;;;;;;;12.10;99.90;;;;;;5050705;28;19931;-90
2022/10/18 00:44:19;;;;;;;;;;;12.10;99.90;;;;;;5067658;28;19927;-91
2022/10/18 00:46:46;;;;;;;;;;;12.10;99.90;;;;;;5069967;28;19959;-90
2022/10/18 00:49:13;;;;;;;;;;;12.10;99.90;;;;;;5047455;28;20000;-90
2022/10/18 00:51:41;;;;;;;;;;;12.10;99.90;;;;;;5103395;28;19950;-91
2022/10/18 00:54:07;;;;;;;;;;;12.10;99.90;;;;;;5086386;28;19932;-91
2022/10/18 00:56:33;;;;;;;;;;;12.10;99.90;;;;;;5064937;28;19947;-92
2022/10/18 00:58:58;;;;;;;;;;;12.10;99.90;;;;;;5103934;28;20165;-91
2022/10/18 01:01:24;;;;;;;;;;;12.10;99.90;;;;;;5093801;28;19924;-91
2022/10/18 01:03:50;;;;;;;;;;;12.10;99.90;;;;;;5068975;28;19928;-91
2022/10/18 01:06:15;;;;;;;;;;;12.00;99.90;;;;;;5062343;28;19943;-89
2022/10/18 01:08:41;;;;;;;;;;;12.00;99.90;;;;;;5081854;28;19928;-91
2022/10/18 01:11:12;;;;;;;;;;;11.90;99.90;;;;;;5067894;28;19950;-91
2022/10/18 01:13:42;;;;;;;;;;;11.90;99.90;;;;;;5082509;28;19930;-91
2022/10/18 01:16:16;;;;;;;;;;;11.90;99.90;;;;;;5067678;28;19927;-91
2022/10/18 01:18:41;;;;;;;;;;;11.90;99.90;;;;;;5083700;28;20439;-92
2022/10/18 01:21:25;;;;;;;;;;;11.90;99.90;;;;;;5085907;28;19924;-91
2022/10/18 01:24:03;;;;;;;;;;;11.90;99.90;;;;;;5069105;28;19932;-90
2022/10/18 01:26:52;;;;;;;;;;;11.90;99.90;;;;;;5118347;27;19924;-90
2022/10/18 01:29:36;;;;;;;;;;;11.80;99.90;;;;;;5082442;28;19959;-90
2022/10/18 01:32:03;;;;;;;;;;;11.80;99.90;;;;;;5069268;28;19924;-91
2022/10/18 01:34:31;;;;;;;;;;;11.80;99.90;;;;;;5085395;28;19989;-90
2022/10/18 01:36:59;;;;;;;;;;;11.80;99.90;;;;;;5102345;28;20007;-91
2022/10/18 01:39:33;;;;;;;;;;;11.80;99.90;;;;;;5117805;28;20018;-90
2022/10/18 01:42:00;;;;;;;;;;;11.80;99.90;;;;;;5066378;28;20485;-91
2022/10/18 01:44:27;;;;;;;;;;;11.80;99.90;;;;;;5111968;28;20053;-90
2022/10/18 01:46:53;;;;;;;;;;;11.80;99.90;;;;;;5101916;28;19977;-92
2022/10/18 01:49:20;;;;;;;;;;;11.80;99.90;;;;;;5084001;28;19987;-90
2022/10/18 01:51:45;;;;;;;;;;;11.80;99.90;;;;;;5066853;28;19924;-92
2022/10/18 01:54:14;;;;;;;;;;;11.80;99.90;;;;;;5064778;28;20313;-90
2022/10/18 01:56:55;;;;;;;;;;;11.80;99.90;;;;;;5080702;28;19963;-91
2022/10/18 01:59:39;;;;;;;;;;;11.80;99.90;;;;;;5086541;28;20272;-90
2022/10/18 02:02:24;;;;;;;;;;;11.80;99.90;;;;;;5083378;28;19924;-91
2022/10/18 02:04:53;;;;;;;;;;;11.90;99.90;;;;;;5053167;28;19924;-91
2022/10/18 02:07:21;;;;;;;;;;;11.90;99.90;;;;;;5100336;28;20384;-90
2022/10/18 02:09:51;;;;;;;;;;;11.90;99.90;;;;;;5066784;28;19935;-90
2022/10/18 02:12:18;;;;;;;;;;;11.90;99.90;;;;;;5092279;28;19925;-90
2022/10/18 02:14:44;;;;;;;;;;;12.00;99.90;;;;;;5064233;28;19925;-90
2022/10/18 02:17:11;;;;;;;;;;;12.10;99.90;;;;;;5050483;28;19973;-91
2022/10/18 02:19:38;;;;;;;;;;;12.10;99.90;;;;;;5067037;28;19928;-90
2022/10/18 02:22:06;;;;;;;;;;;12.10;99.90;;;;;;5083029;28;19928;-91
2022/10/18 02:24:40;;;;;;;;;;;12.10;99.90;;;;;;5065267;28;19925;-90
2022/10/18 02:27:06;;;;;;;;;;;12.20;99.90;;;;;;5078229;28;19924;-90
2022/10/18 02:29:32;;;;;;;;;;;12.20;99.90;;;;;;5068764;28;19932;-90
2022/10/18 02:32:04;;;;;;;;;;;12.20;99.90;;;;;;5098604;28;19975;-90
2022/10/18 02:34:38;;;;;;;;;;;12.20;99.90;;;;;;5061488;28;19947;-90
2022/10/18 02:37:04;;;;;;;;;;;12.20;99.90;;;;;;5096639;28;20367;-89
2022/10/18 02:39:59;;;;;;;;;;;12.30;99.90;;;;;;5054386;28;19988;-90
2022/10/18 02:42:28;;;;;;;;;;;12.30;99.90;;;;;;5051644;28;19924;-90
2022/10/18 02:44:54;;;;;;;;;;;12.20;99.90;;;;;;5060429;28;19924;-90
2022/10/18 02:47:19;;;;;;;;;;;12.30;99.90;;;;;;5062069;28;20001;-91
2022/10/18 02:49:45;;;;;;;;;;;12.30;99.90;;;;;;5050079;28;19924;-90
2022/10/18 02:52:10;;;;;;;;;;;12.30;99.90;;;;;;5047023;28;19928;-91
2022/10/18 02:54:36;;;;;;;;;;;12.30;99.90;;;;;;5086666;28;19924;-91
2022/10/18 02:57:01;;;;;;;;;;;12.30;99.90;;;;;;5058551;28;19959;-91
2022/10/18 02:59:27;;;;;;;;;;;12.30;99.90;;;;;;5046238;28;19968;-91
2022/10/18 03:01:53;;;;;;;;;;;12.30;99.90;;;;;;5047244;28;20028;-91
2022/10/18 03:04:18;;;;;;;;;;;12.30;99.90;;;;;;5047568;28;19924;-90
2022/10/18 03:06:44;;;;;;;;;;;12.30;99.90;;;;;;5048282;28;19924;-90
2022/10/18 03:09:09;;;;;;;;;;;12.30;99.90;;;;;;5048804;28;20393;-91
2022/10/18 03:11:35;;;;;;;;;;;12.30;99.90;;;;;;5100979;28;19962;-91
2022/10/18 03:14:00;;;;;;;;;;;12.30;99.90;;;;;;5065216;28;20368;-90
2022/10/18 03:16:26;;;;;;;;;;;12.30;99.90;;;;;;5048730;28;19963;-90
2022/10/18 03:18:52;;;;;;;;;;;12.30;99.90;;;;;;5101667;28;19924;-91
2022/10/18 03:21:17;;;;;;;;;;;12.30;99.90;;;;;;5050224;28;20300;-91
2022/10/18 03:23:43;;;;;;;;;;;12.30;99.90;;;;;;5083092;28;19932;-89
2022/10/18 03:26:09;;;;;;;;;;;12.30;99.90;;;;;;5048884;28;19939;-91
2022/10/18 03:28:34;;;;;;;;;;;12.20;99.90;;;;;;5067154;28;19928;-91
2022/10/18 03:31:01;;;;;;;;;;;12.30;99.90;;;;;;5064321;28;19935;-91
2022/10/18 03:33:27;;;;;;;;;;;12.30;99.90;;;;;;5050577;28;19931;-91
2022/10/18 03:35:52;;;;;;;;;;;12.20;99.90;;;;;;5081083;28;19967;-91
2022/10/18 03:38:18;;;;;;;;;;;12.20;99.90;;;;;;5050184;28;19946;-90
2022/10/18 03:40:44;;;;;;;;;;;12.20;99.90;;;;;;5048589;28;20394;-91
2022/10/18 03:43:09;;;;;;;;;;;12.20;99.90;;;;;;5066643;28;19947;-91
2022/10/18 03:45:35;;;;;;;;;;;12.20;99.90;;;;;;5049504;28;19928;-92
2022/10/18 03:48:00;;;;;;;;;;;12.20;99.90;;;;;;5097422;28;19939;-92
2022/10/18 03:50:26;;;;;;;;;;;12.10;99.90;;;;;;5066710;28;19986;-90
2022/10/18 03:52:53;;;;;;;;;;;12.20;99.90;;;;;;5043162;28;19924;-91
2022/10/18 03:55:18;;;;;;;;;;;12.20;99.90;;;;;;5095141;28;19924;-90
2022/10/18 03:57:44;;;;;;;;;;;12.20;99.90;;;;;;5039114;28;19925;-91
2022/10/18 04:00:10;;;;;;;;;;;12.20;99.90;;;;;;5043754;28;19924;-91
2022/10/18 04:02:36;;;;;;;;;;;12.20;99.90;;;;;;5042394;28;20110;-91
2022/10/18 04:05:01;;;;;;;;;;;12.20;99.90;;;;;;5055423;28;19932;-92
2022/10/18 04:07:27;;;;;;;;;;;12.20;99.90;;;;;;5062269;28;19951;-91
2022/10/18 04:09:52;;;;;;;;;;;12.10;99.90;;;;;;5057026;28;20465;-90
2022/10/18 04:12:18;;;;;;;;;;;12.10;99.90;;;;;;5057751;28;20459;-90
2022/10/18 04:14:44;;;;;;;;;;;12.10;99.90;;;;;;5046371;28;19932;-89
2022/10/18 04:17:09;;;;;;;;;;;12.10;99.90;;;;;;5042891;28;19991;-93
2022/10/18 04:19:35;;;;;;;;;;;12.10;99.90;;;;;;5066595;28;19973;-92
2022/10/18 04:22:00;;;;;;;;;;;12.10;99.90;;;;;;5066256;28;20356;-91
2022/10/18 04:24:26;;;;;;;;;;;12.10;99.90;;;;;;5068575;28;19947;-91
2022/10/18 04:26:51;;;;;;;;;;;12.00;99.90;;;;;;5059796;28;19950;-91
2022/10/18 04:29:17;;;;;;;;;;;12.00;99.90;;;;;;5067044;28;19946;-91
2022/10/18 04:31:43;;;;;;;;;;;12.00;99.90;;;;;;5095708;28;19924;-90
2022/10/18 04:34:09;;;;;;;;;;;11.90;99.90;;;;;;5048629;28;19947;-91
2022/10/18 04:36:35;;;;;;;;;;;11.90;99.90;;;;;;5099338;28;19942;-90
2022/10/18 04:39:00;;;;;;;;;;;11.90;99.90;;;;;;5043413;28;20109;-90
2022/10/18 04:41:26;;;;;;;;;;;11.90;99.90;;;;;;5067833;28;19931;-90
2022/10/18 04:43:51;;;;;;;;;;;11.90;99.90;;;;;;5048661;28;19971;-90
2022/10/18 04:46:17;;;;;;;;;;;11.80;99.90;;;;;;5051464;28;20334;-90
2022/10/18 04:48:43;;;;;;;;;;;11.80;99.90;;;;;;5083362;28;20017;-90
2022/10/18 04:51:08;;;;;;;;;;;11.80;99.90;;;;;;5080098;28;19932;-89
2022/10/18 04:53:34;;;;;;;;;;;11.70;99.90;;;;;;5066111;28;20017;-89
2022/10/18 04:55:59;;;;;;;;;;;11.70;99.90;;;;;;5045399;28;19929;-90
2022/10/18 04:58:25;;;;;;;;;;;11.70;99.90;;;;;;5071833;28;19924;-89
2022/10/18 05:00:51;;;;;;;;;;;11.60;99.90;;;;;;5039104;28;19924;-90
2022/10/18 05:03:16;;;;;;;;;;;11.60;99.90;;;;;;5041879;28;19939;-92
2022/10/18 05:05:44;;;;;;;;;;;11.60;99.90;;;;;;5042128;28;19950;-90
2022/10/18 05:08:10;;;;;;;;;;;11.60;99.90;;;;;;5061753;28;19930;-91
2022/10/18 05:10:36;;;;;;;;;;;11.70;99.90;;;;;;5080542;28;20518;-89
2022/10/18 05:13:03;;;;;;;;;;;11.60;99.90;;;;;;5062260;28;20570;-89
2022/10/18 05:15:28;;;;;;;;;;;11.60;99.90;;;;;;5096051;28;19924;-90
2022/10/18 05:17:54;;;;;;;;;;;11.60;99.90;;;;;;5062603;28;19931;-91
2022/10/18 05:20:20;;;;;;;;;;;11.50;99.90;;;;;;5065150;28;19930;-91
2022/10/18 05:22:45;;;;;;;;;;;11.50;99.90;;;;;;5046111;28;19973;-90
2022/10/18 05:25:11;;;;;;;;;;;11.50;99.90;;;;;;5065831;28;20365;-90
2022/10/18 05:27:36;;;;;;;;;;;11.50;99.90;;;;;;5097273;28;21275;-90
2022/10/18 05:30:03;;;;;;;;;;;11.50;99.90;;;;;;5069082;28;19931;-91
2022/10/18 05:32:28;;;;;;;;;;;11.50;99.90;;;;;;5066600;28;19931;-90
2022/10/18 05:34:54;;;;;;;;;;;11.50;99.90;;;;;;5050895;28;20007;-90
2022/10/18 05:37:20;;;;;;;;;;;11.40;99.90;;;;;;5086517;28;19932;-90
2022/10/18 05:39:46;;;;;;;;;;;11.40;99.90;;;;;;5050490;28;19946;-90
2022/10/18 05:42:11;;;;;;;;;;;11.30;99.90;;;;;;5069988;28;19964;-91
2022/10/18 05:44:37;;;;;;;;;;;11.30;99.90;;;;;;5050781;28;19946;-88
2022/10/18 05:47:03;;;;;;;;;;;11.30;99.90;;;;;;5064876;28;19931;-92
2022/10/18 05:49:28;;;;;;;;;;;11.20;99.90;;;;;;5083717;28;19950;-91
2022/10/18 05:51:54;;;;;;;;;;;11.20;99.90;;;;;;5050087;28;19924;-92
2022/10/18 05:54:19;;;;;;;;;;;11.20;99.90;;;;;;5097316;28;19928;-90
2022/10/18 05:56:45;;;;;;;;;;;11.20;99.90;;;;;;5048910;28;19924;-94
2022/10/18 05:59:11;;;;;;;;;;;11.20;99.90;;;;;;5095925;28;20040;-94
2022/10/18 06:01:37;;;;;;;;;;;11.20;99.90;;;;;;5062629;28;19928;-93
2022/10/18 06:04:03;;;;;;;;;;;11.10;99.90;;;;;;5088076;28;20454;-95
2022/10/18 06:06:29;;;;;;;;;;;11.10;99.90;;;;;;5073712;28;19928;-95
2022/10/18 06:08:55;;;;;;;;;;;11.10;99.90;;;;;;5065463;28;19957;-93
2022/10/18 06:11:21;;;;;;;;;;;11.10;99.90;;;;;;5068383;28;20057;-95
2022/10/18 06:13:48;;;;;;;;;;;11.10;99.90;;;;;;5081892;28;19924;-96
2022/10/18 06:16:14;;;;;;;;;;;11.00;99.90;;;;;;5082435;28;19924;-93
2022/10/18 06:18:40;;;;;;;;;;;11.00;99.90;;;;;;5075088;28;19932;-93
2022/10/18 06:21:06;;;;;;;;;;;11.00;99.90;;;;;;5098463;28;19931;-92
2022/10/18 06:23:32;;;;;;;;;;;10.90;99.90;;;;;;5063456;28;19932;-93
2022/10/18 06:26:03;;;;;;;;;;;10.80;99.90;;;;;;5082122;28;19932;-95
2022/10/18 06:28:28;;;;;;;;;;;10.80;99.90;;;;;;5068631;28;19924;-93
2022/10/18 06:30:54;;;;;;;;;;;10.70;99.90;;;;;;5065320;28;19978;-93
2022/10/18 06:33:20;;;;;;;;;;;10.60;99.90;;;;;;5065065;28;19935;-94
2022/10/18 06:35:56;;;;;;;;;;;10.70;99.90;;;;;;5065093;28;19935;-95
2022/10/18 06:38:22;;;;;;;;;;;10.60;99.90;;;;;;5067693;28;19924;-95
2022/10/18 06:40:48;;;;;;;;;;;10.60;99.90;;;;;;5066299;28;19954;-94
2022/10/18 06:43:13;;;;;;;;;;;10.60;99.90;;;;;;5081529;28;19966;-94
2022/10/18 06:45:39;;;;;;;;;;;9.70;99.90;;;;;;5066119;28;19928;-96
2022/10/18 06:48:04;;;;;;;;;;;10.60;99.90;;;;;;5063830;28;19932;-95
2022/10/18 06:50:30;;;;;;;;;;;10.60;99.90;;;;;;5051053;28;20307;-94
2022/10/18 06:52:56;;;;;;;;;;;10.50;99.90;;;;;;5081789;28;19935;-94
2022/10/18 06:55:21;;;;;;;;;;;10.50;99.90;;;;;;5084148;28;19924;-95
2022/10/18 06:57:47;;;;;;;;;;;10.50;99.90;;;;;;5049624;28;19955;-95
2022/10/18 07:00:13;;;;;;;;;;;10.50;99.90;;;;;;5112674;28;19964;-95
2022/10/18 07:02:40;;;;;;;;;;;10.40;99.90;;;;;;5115156;28;19967;-93
2022/10/18 07:05:09;;;;;;;;;;;10.50;99.90;;;;;;5096305;28;19924;-96
2022/10/18 07:07:35;;;;;;;;;;;10.50;99.90;;;;;;5066074;28;19928;-95
2022/10/18 07:10:01;;;;;;;;;;;10.50;99.90;;;;;;5064496;28;19988;-95
2022/10/18 07:12:26;;;;;;;;;;;10.40;99.90;;;;;;5100748;28;20229;-94
2022/10/18 07:14:52;;;;;;;;;;;10.40;99.90;;;;;;5065855;28;20315;-95
2022/10/18 07:17:17;;;;;;;;;;;10.40;99.90;;;;;;5048716;28;19932;-93
2022/10/18 07:19:43;;;;;;;;;;;10.40;99.90;;;;;;5083110;28;19924;-94
2022/10/18 07:22:08;;;;;;;;;;;10.40;99.90;;;;;;5047475;28;19930;-96
2022/10/18 07:24:34;;;;;;;;;;;10.40;99.90;;;;;;5047230;28;19924;-95
2022/10/18 07:27:00;;;;;;;;;;;10.40;99.90;;;;;;5064268;28;19935;-94
2022/10/18 07:29:25;;;;;;;;;;;10.40;99.90;;;;;;5084118;28;19974;-94
2022/10/18 07:31:51;;;;;;;;;;;10.50;99.90;;;;;;5064778;28;19924;-94
2022/10/18 07:34:16;;;;;;;;;;;10.50;99.90;;;;;;5083507;28;19924;-94
2022/10/18 07:36:42;;;;;;;;;;;10.50;99.90;;;;;;5076484;28;19931;-94
2022/10/18 07:39:08;;;;;;;;;;;10.50;99.90;;;;;;5045990;28;19966;-94
2022/10/18 07:41:33;;;;;;;;;;;10.50;99.90;;;;;;5048029;28;19924;-95
2022/10/18 07:43:59;;;;;;;;;;;10.50;99.90;;;;;;5061323;28;19974;-94
2022/10/18 07:46:25;;;;;;;;;;;10.50;99.90;;;;;;5063362;28;19968;-94
2022/10/18 07:48:51;;;;;;;;;;;10.50;99.90;;;;;;5077871;28;20033;-93
2022/10/18 07:51:16;;;;;;;;;;;10.50;99.90;;;;;;5079536;28;20015;-93
2022/10/18 07:53:42;;;;;;;;;;;10.50;99.90;;;;;;5078950;28;19925;-95
2022/10/18 07:56:14;;;;;;;;;;;10.60;99.90;;;;;;5061829;28;19947;-93
2022/10/18 07:58:40;;;;;;;;;;;10.60;99.90;;;;;;5080051;28;19954;-94
2022/10/18 08:01:07;;;;;;;;;;;10.60;99.90;;;;;;5063016;28;19938;-95
2022/10/18 08:03:32;;;;;;;;;;;10.60;99.90;;;;;;5050026;28;19928;-95
2022/10/18 08:05:58;;;;;;;;;;;10.60;99.90;;;;;;5080583;28;19924;-96
2022/10/18 08:08:24;;;;;;;;;;;10.60;99.90;;;;;;5066847;28;19943;-95
2022/10/18 08:10:50;;;;;;;;;;;10.60;99.90;;;;;;5082910;28;19928;-94
2022/10/18 08:13:15;;;;;;;;;;;10.70;99.90;;;;;;5064815;28;19925;-96
2022/10/18 08:15:41;;;;;;;;;;;10.70;99.90;;;;;;5066672;28;19973;-95
2022/10/18 08:18:07;;;;;;;;;;;10.80;99.90;;;;;;5080146;28;19924;-94
2022/10/18 08:20:35;;;;;;;;;;;10.90;99.90;;;;;;5101689;28;19924;-93
2022/10/18 08:23:00;;;;;;;;;;;10.80;99.90;;;;;;5066475;28;19966;-93
2022/10/18 08:25:27;;;;;;;;;;;10.80;99.90;;;;;;5051653;28;19925;-92
2022/10/18 08:27:52;;;;;;;;;;;10.80;99.90;;;;;;5087186;28;19925;-92
2022/10/18 08:30:18;;;;;;;;;;;10.80;99.90;;;;;;5089155;28;20012;-92
2022/10/18 08:32:43;;;;;;;;;;;10.80;99.90;;;;;;5073229;28;19916;-94
2022/10/18 08:35:09;;;;;;;;;;;10.80;99.90;;;;;;5074752;28;19947;-94
2022/10/18 08:37:35;;;;;;;;;;;10.90;99.90;;;;;;5060655;28;19971;-95
2022/10/18 08:40:01;;;;;;;;;;;10.90;99.90;;;;;;5052881;28;19932;-91
2022/10/18 08:42:30;;;;;;;;;;;10.90;99.90;;;;;;5045574;28;19924;-92
2022/10/18 08:44:56;;;;;;;;;;;11.10;99.90;;;;;;5064471;28;19932;-93
2022/10/18 08:47:29;;;;;;;;;;;11.10;99.90;;;;;;5047071;28;19925;-94
2022/10/18 08:49:57;;;;;;;;;;;11.20;99.90;;;;;;5113896;22;19931;-94
2022/10/18 08:52:38;;;;;;;;;;;11.40;99.90;;;;;;5089541;22;19920;-93
2022/10/18 08:55:10;;;;;;;;;;;11.90;99.90;;;;;;5107983;22;20059;-94
2022/10/18 08:57:36;;;;;;;;;;;13.50;99.90;;;;;;5122655;28;19928;-96
2022/10/18 09:00:06;;;;;;;;;;;13.40;99.90;;;;;;5120554;28;19946;-95
2022/10/18 09:02:35;;;;;;;;;;;11.70;99.90;;;;;;5138998;27;19920;-94
2022/10/18 09:05:15;;;;;;;;;;;9.30;99.90;;;;;;5109328;28;19972;-94
2022/10/18 09:07:50;;;;;;;;;;;11.90;99.90;;;;;;5102391;28;20203;-95
2022/10/18 09:10:35;;;;;;;;;;;12.00;99.90;;;;;;5089099;28;19928;-96
2022/10/18 09:13:16;;;;;;;;;;;12.20;99.90;;;;;;5110736;28;19930;-96
2022/10/18 09:15:48;;;;;;;;;;;12.30;99.90;;;;;;5122549;28;19995;-95
2022/10/18 09:18:13;;;;;;;;;;;12.40;99.90;;;;;;5125644;28;19927;-93
2022/10/18 09:20:52;;;;;;;;;;;12.40;99.90;;;;;;5100399;28;19945;-94
2022/10/18 09:23:18;;;;;;;;;;;12.50;99.90;;;;;;5146721;27;20479;-94
2022/10/18 09:25:48;;;;;;;;;;;12.60;99.90;;;;;;5114117;28;19920;-96
2022/10/18 09:28:26;;;;;;;;;;;12.70;99.90;;;;;;5093420;28;20038;-93
2022/10/18 09:30:59;;;;;;;;;;;12.70;99.90;;;;;;5127972;28;19935;-94
2022/10/18 09:33:24;;;;;;;;;;;12.80;99.90;;;;;;5126019;28;19980;-95
2022/10/18 09:36:00;;;;;;;;;;;12.90;99.90;;;;;;5146588;27;19939;-96
2022/10/18 09:38:46;;;;;;;;;;;13.10;99.90;;;;;;5113209;28;19943;-94
2022/10/18 09:41:19;;;;;;;;;;;13.10;99.90;;;;;;5092733;27;19974;-94
2022/10/18 09:43:57;;;;;;;;;;;13.20;99.90;;;;;;5128239;27;19935;-94
2022/10/18 09:46:25;;;;;;;;;;;13.20;99.90;;;;;;5145280;27;19924;-94
2022/10/18 09:49:01;;;;;;;;;;;13.40;99.90;;;;;;5121030;28;19924;-95
2022/10/18 09:51:35;;;;;;;;;;;13.40;99.90;;;;;;5099734;28;19930;-94
2022/10/18 09:54:19;;;;;;;;;;;13.40;99.90;;;;;;5129521;28;19924;-95
2022/10/18 09:56:49;;;;;;;;;;;13.50;99.90;;;;;;5141000;27;20552;-94
2022/10/18 09:59:21;;;;;;;;;;;13.60;99.90;;;;;;5109204;28;19966;-95
2022/10/18 10:01:46;;;;;;;;;;;13.70;99.90;;;;;;5135121;27;19924;-96
2022/10/18 10:04:14;;;;;;;;;;;13.80;99.90;;;;;;5134141;28;19924;-96
2022/10/18 10:06:47;;;;;;;;;;;13.80;99.90;;;;;;5109976;28;19923;-93
2022/10/18 10:09:14;;;;;;;;;;;11.50;99.90;;;;;;5099669;28;19963;-96
2022/10/18 10:11:50;;;;;;;;;;;13.90;99.90;;;;;;5099898;28;19975;-94
2022/10/18 10:14:18;;;;;;;;;;;14.00;99.90;;;;;;5089273;27;19930;-92
2022/10/18 10:16:46;;;;;;;;;;;14.10;99.90;;;;;;5083901;27;19924;-96
2022/10/18 10:19:21;;;;;;;;;;;14.10;99.90;;;;;;5099427;28;20179;-94
2022/10/18 10:21:48;;;;;;;;;;;14.20;99.90;;;;;;5110660;28;20113;-93
2022/10/18 10:24:19;;;;;;;;;;;14.30;99.90;;;;;;5129001;27;19968;-95
2022/10/18 10:26:45;;;;;;;;;;;14.40;99.90;;;;;;5100630;28;19927;-93
2022/10/18 10:29:30;;;;;;;;;;;14.40;99.90;;;;;;5120061;28;19931;-95
2022/10/18 10:32:02;;;;;;;;;;;14.40;99.90;;;;;;5103448;28;19946;-94
2022/10/18 10:34:28;;;;;;;;;;;14.40;99.90;;;;;;5084654;28;20436;-93
2022/10/18 10:36:54;;;;;;;;;;;16.40;99.90;;;;;;5133859;27;19927;-93
2022/10/18 10:39:21;;;;;;;;;;;14.40;99.90;;;;;;5101286;28;19993;-94
2022/10/18 10:41:48;;;;;;;;;;;14.50;99.90;;;;;;5138997;27;19966;-93
2022/10/18 10:44:22;;;;;;;;;;;14.50;99.90;;;;;;5104002;28;19996;-95
2022/10/18 10:46:48;;;;;;;;;;;14.60;99.90;;;;;;5138598;27;19932;-91
2022/10/18 10:49:21;;;;;;;;;;;14.70;99.90;;;;;;5103902;28;19932;-94
2022/10/18 10:52:13;;;;;;;;;;;14.80;99.90;;;;;;5086228;27;19927;-93
2022/10/18 10:54:42;;;;;;;;;;;14.90;99.90;;;;;;5075474;28;19924;-92
2022/10/18 10:57:10;;;;;;;;;;;15.20;99.90;;;;;;5139449;27;19930;-95
2022/10/18 10:59:46;;;;;;;;;;;15.50;99.90;;;;;;5104352;28;19934;-93
2022/10/18 11:02:19;;;;;;;;;;;15.30;99.90;;;;;;5117020;28;19927;-96
2022/10/18 11:04:46;;;;;;;;;;;15.20;99.90;;;;;;5102742;22;19935;-93
2022/10/18 11:07:23;;;;;;;;;;;15.20;99.90;;;;;;5089407;27;19987;-92
2022/10/18 11:09:53;;;;;;;;;;;15.20;99.90;;;;;;5076057;27;20848;-90
2022/10/18 11:12:25;;;;;;;;;;;15.30;99.90;;;;;;5082491;28;19935;-92
2022/10/18 11:15:10;;;;;;;;;;;15.40;99.90;;;;;;5132810;27;19923;-94
2022/10/18 11:17:56;;;;;;;;;;;15.40;99.90;;;;;;5100773;27;19927;-94
2022/10/18 11:20:32;;;;;;;;;;;15.40;99.90;;;;;;5112327;27;19924;-94
2022/10/18 11:22:59;;;;;;;;;;;15.40;99.90;;;;;;5078869;28;19930;-92
2022/10/18 11:25:44;;;;;;;;;;;15.40;99.90;;;;;;5094954;28;19938;-95
2022/10/18 11:28:17;;;;;;;;;;;15.40;99.90;;;;;;5131096;27;19930;-92
2022/10/18 11:31:03;;;;;;;;;;;15.50;99.90;;;;;;5089247;27;19928;-94
2022/10/18 11:33:40;;;;;;;;;;;15.30;99.90;;;;;;5117521;27;19942;-94
2022/10/18 11:36:06;;;;;;;;;;;15.20;99.90;;;;;;5106581;28;19957;-96
2022/10/18 11:38:44;;;;;;;;;;;15.10;99.90;;;;;;5096750;27;20020;-94
2022/10/18 11:41:29;;;;;;;;;;;15.00;99.90;;;;;;5084717;28;20019;-95
2022/10/18 11:43:55;;;;;;;;;;;15.00;99.90;;;;;;5120507;27;19932;-93
2022/10/18 11:46:36;;;;;;;;;;;14.90;99.90;;;;;;5083926;28;20014;-93
2022/10/18 11:49:22;;;;;;;;;;;14.80;99.90;;;;;;5128707;27;19946;-94
2022/10/18 11:51:55;;;;;;;;;;;14.70;99.90;;;;;;5093350;28;20086;-91
2022/10/18 11:54:26;;;;;;;;;;;14.60;99.90;;;;;;5103660;28;19928;-93
2022/10/18 11:57:00;;;;;;;;;;;14.60;99.90;;;;;;5103046;28;19979;-93
2022/10/18 11:59:32;;;;;;;;;;;14.60;99.90;;;;;;5082819;28;19954;-94
2022/10/18 12:02:13;;;;;;;;;;;14.60;99.90;;;;;;5100892;28;20463;-91
2022/10/18 12:04:54;;;;;;;;;;;14.70;99.90;;;;;;5120551;27;19924;-92
2022/10/18 12:07:21;;;;;;;;;;;14.90;99.90;;;;;;5116933;28;19944;-92
2022/10/18 12:09:49;;;;;;;;;;;15.30;99.90;;;;;;5083463;28;19945;-95
2022/10/18 12:12:24;;;;;;;;;;;15.60;99.90;;;;;;5109097;28;19962;-95
2022/10/18 12:14:50;;;;;;;;;;;15.90;99.90;;;;;;5117042;28;19931;-95
2022/10/18 12:17:26;;;;;;;;;;;16.10;99.90;;;;;;5096073;27;19923;-92
2022/10/18 12:19:54;;;;;;;;;;;16.10;99.90;;;;;;5089580;28;19930;-93
2022/10/18 12:22:40;;;;;;;;;;;15.90;99.90;;;;;;5086826;28;19927;-95
2022/10/18 12:25:11;;;;;;;;;;;15.70;99.90;;;;;;5087403;28;19987;-92
2022/10/18 12:27:39;;;;;;;;;;;15.70;99.90;;;;;;5116368;28;19928;-94
2022/10/18 12:30:12;;;;;;;;;;;15.70;99.90;;;;;;5092418;28;20387;-94
2022/10/18 12:32:38;;;;;;;;;;;15.80;99.90;;;;;;5093637;28;19935;-93
2022/10/18 12:35:09;;;;;;;;;;;16.00;99.90;;;;;;5084765;28;19942;-92
2022/10/18 12:37:40;;;;;;;;;;;16.10;99.90;;;;;;5087623;28;19934;-92
2022/10/18 12:40:12;;;;;;;;;;;16.20;99.90;;;;;;5102370;27;19923;-93
2022/10/18 12:42:45;;;;;;;;;;;16.30;99.90;;;;;;5105373;28;20397;-93
2022/10/18 12:45:21;;;;;;;;;;;16.40;99.90;;;;;;5106476;28;19923;-92
2022/10/18 12:47:47;;;;;;;;;;;16.50;99.90;;;;;;5090531;28;19924;-93
2022/10/18 12:50:36;;;;;;;;;;;16.60;99.90;;;;;;5072604;28;19924;-93
2022/10/18 12:53:02;;;;;;;;;;;16.80;99.90;;;;;;5104191;28;20492;-92
2022/10/18 12:55:35;;;;;;;;;;;16.90;99.90;;;;;;5108119;28;19955;-93
2022/10/18 12:58:03;;;;;;;;;;;16.90;99.90;;;;;;5096451;27;19927;-95
2022/10/18 13:00:28;;;;;;;;;;;16.90;99.90;;;;;;5109829;28;19935;-94
2022/10/18 13:03:12;;;;;;;;;;;17.00;99.90;;;;;;5095599;28;19927;-92
2022/10/18 13:05:44;;;;;;;;;;;16.90;99.90;;;;;;5093794;28;19939;-94
2022/10/18 13:08:28;;;;;;;;;;;16.90;99.90;;;;;;5130263;27;19923;-94
2022/10/18 13:11:00;;;;;;;;;;;16.80;99.90;;;;;;5090844;28;19946;-95
2022/10/18 13:13:29;;;;;;;;;;;16.70;99.90;;;;;;5108535;28;19924;-95
2022/10/18 13:15:59;;;;;;;;;;;16.60;99.90;;;;;;5116104;27;20350;-93
2022/10/18 13:18:30;;;;;;;;;;;16.40;99.90;;;;;;5090388;28;19924;-92
2022/10/18 13:21:06;;;;;;;;;;;16.20;99.90;;;;;;5089924;28;20351;-94
2022/10/18 13:23:45;;;;;;;;;;;16.00;99.90;;;;;;5092497;28;19928;-93
2022/10/18 13:26:14;;;;;;;;;;;15.90;99.90;;;;;;5096507;28;19928;-95
2022/10/18 13:28:46;;;;;;;;;;;15.90;99.90;;;;;;5096250;28;19934;-93
2022/10/18 13:31:12;;;;;;;;;;;15.80;99.90;;;;;;5104755;28;19924;-92
2022/10/18 13:33:43;;;;;;;;;;;15.70;99.90;;;;;;5096359;28;20436;-95
2022/10/18 13:36:18;;;;;;;;;;;15.60;99.90;;;;;;5085745;28;19962;-94
2022/10/18 13:39:16;;;;;;;;;;;15.60;99.90;;;;;;5123621;28;19934;-96
2022/10/18 13:41:51;;;;;;;;;;;15.40;99.90;;;;;;5091011;28;20337;-96
2022/10/18 13:44:27;;;;;;;;;;;16.00;99.90;;;;;;5103803;27;19923;-96
2022/10/18 13:47:14;;;;;;;;;;;15.80;99.90;;;;;;5129749;27;19987;-96
2022/10/18 13:49:43;;;;;;;;;;;15.00;99.90;;;;;;5101460;27;19938;-94
2022/10/18 13:52:12;;;;;;;;;;;16.00;99.90;;;;;;5093317;28;19946;-95
2022/10/18 13:55:00;;;;;;;;;;;16.10;99.90;;;;;;5095296;28;19934;-95
2022/10/18 13:57:47;;;;;;;;;;;17.00;99.90;;;;;;5094529;28;19920;-95
2022/10/18 14:00:33;;;;;;;;;;;15.90;99.90;;;;;;5140415;22;19924;-94
2022/10/18 14:03:18;;;;;;;;;;;17.70;99.90;;;;;;5061278;28;19974;-92
2022/10/18 14:05:59;;;;;;;;;;;16.20;99.90;;;;;;5076402;28;20367;-92
2022/10/18 14:08:33;;;;;;;;;;;16.60;99.90;;;;;;5077868;28;20007;-92
2022/10/18 14:11:12;;;;;;;;;;;16.00;99.90;;;;;;5111047;28;19926;-93
2022/10/18 14:13:55;;;;;;;;;;;15.80;99.90;;;;;;5074943;28;20391;-92
2022/10/18 14:16:36;;;;;;;;;;;15.80;99.90;;;;;;5129004;28;19912;-93
2022/10/18 14:19:21;;;;;;;;;;;15.60;99.90;;;;;;5091903;28;19920;-94
2022/10/18 14:22:06;;;;;;;;;;;;;;;;;;;;;
2022/10/18 14:25:02;;;;;;;;;;;15.40;99.90;;;;;;5124334;27;19920;-91
2022/10/18 14:28:01;;;;;;;;;;;15.40;99.90;;;;;;5092452;28;20314;-95
2022/10/18 14:30:29;;;;;;;;;;;15.50;99.90;;;;;;5106833;28;19927;-94
2022/10/18 14:36:20;;;;;;;;;;;14.50;99.90;;;;;;5018083;28;19998;-92